sensor_id;sensor_type;location;lat;lon;timestamp;temperature;humidity
34985;DHT22;21190;58.750;17.004;2022-09-16T00:00:59;10.90;99.90
34985;DHT22;21190;58.750;17.004;2022-09-16T00:03:26;10.90;99.90
34985;DHT22;21190;58.750;17.004;2022-09-16T00:05:53;10.80;99.90
34985;DHT22;21190;58.750;17.004;2022-09-16T00:08:20;10.90;99.90
34985;DHT22;21190;58.750;17.004;2022-09-16T00:10:48;10.90;99.90
34985;DHT22;21190;58.750;17.004;2022-09-16T00:13:15;10.90;99.90
34985;DHT22;21190;58.750;17.004;2022-09-16T00:15:46;10.80;99.90
34985;DHT22;21190;58.750;17.004;2022-09-16T00:18:13;10.90;99.90
34985;DHT22;21190;58.750;17.004;2022-09-16T00:20:44;10.90;99.90
34985;DHT22;21190;58.750;17.004;2022-09-16T00:23:11;10.90;99.90
34985;DHT22;21190;58.750;17.004;2022-09-16T00:25:38;10.90;99.90
34985;DHT22;21190;58.750;17.004;2022-09-16T00:28:05;11.00;99.90
34985;DHT22;21190;58.750;17.004;2022-09-16T00:30:32;11.00;99.90
34985;DHT22;21190;58.750;17.004;2022-09-16T00:32:59;11.00;99.90
34985;DHT22;21190;58.750;17.004;2022-09-16T00:35:26;11.00;99.90
34985;DHT22;21190;58.750;17.004;2022-09-16T00:37:53;11.00;99.90
34985;DHT22;21190;58.750;17.004;2022-09-16T00:40:20;11.10;99.90
34985;DHT22;21190;58.750;17.004;2022-09-16T00:42:47;11.00;99.90
34985;DHT22;21190;58.750;17.004;2022-09-16T00:45:16;11.10;99.90
34985;DHT22;21190;58.750;17.004;2022-09-16T00:50:29;11.00;99.90
34985;DHT22;21190;58.750;17.004;2022-09-16T00:52:58;11.00;99.90
34985;DHT22;21190;58.750;17.004;2022-09-16T00:55:27;11.00;99.90
34985;DHT22;21190;58.750;17.004;2022-09-16T00:57:54;11.00;99.90
34985;DHT22;21190;58.750;17.004;2022-09-16T01:00:22;11.00;99.90
34985;DHT22;21190;58.750;17.004;2022-09-16T01:02:49;11.00;99.90
34985;DHT22;21190;58.750;17.004;2022-09-16T01:05:21;11.00;99.90
34985;DHT22;21190;58.750;17.004;2022-09-16T01:07:49;11.00;99.90
34985;DHT22;21190;58.750;17.004;2022-09-16T01:10:18;11.00;99.90
34985;DHT22;21190;58.750;17.004;2022-09-16T01:12:46;10.90;99.90
34985;DHT22;21190;58.750;17.004;2022-09-16T01:15:14;10.90;99.90
34985;DHT22;21190;58.750;17.004;2022-09-16T01:27:43;11.00;99.90
34985;DHT22;21190;58.750;17.004;2022-09-16T01:40:17;11.00;99.90
34985;DHT22;21190;58.750;17.004;2022-09-16T01:55:20;11.00;99.90
34985;DHT22;21190;58.750;17.004;2022-09-16T01:57:52;11.00;99.90
34985;DHT22;21190;58.750;17.004;2022-09-16T02:00:22;11.00;99.90
34985;DHT22;21190;58.750;17.004;2022-09-16T02:05:26;10.90;99.90
34985;DHT22;21190;58.750;17.004;2022-09-16T02:07:56;10.90;99.90
34985;DHT22;21190;58.750;17.004;2022-09-16T02:10:28;10.90;99.90
34985;DHT22;21190;58.750;17.004;2022-09-16T02:13:03;10.90;99.90
34985;DHT22;21190;58.750;17.004;2022-09-16T02:15:31;10.90;99.90
34985;DHT22;21190;58.750;17.004;2022-09-16T02:18:00;10.90;99.90
34985;DHT22;21190;58.750;17.004;2022-09-16T02:20:29;10.80;99.90
34985;DHT22;21190;58.750;17.004;2022-09-16T02:22:58;10.90;99.90
34985;DHT22;21190;58.750;17.004;2022-09-16T02:25:26;10.90;99.90
34985;DHT22;21190;58.750;17.004;2022-09-16T02:27:55;10.90;99.90
34985;DHT22;21190;58.750;17.004;2022-09-16T02:30:22;10.90;99.90
34985;DHT22;21190;58.750;17.004;2022-09-16T02:32:59;10.90;99.90
34985;DHT22;21190;58.750;17.004;2022-09-16T02:35:28;10.80;99.90
34985;DHT22;21190;58.750;17.004;2022-09-16T02:37:58;10.80;99.90
34985;DHT22;21190;58.750;17.004;2022-09-16T02:40:31;10.90;99.90
34985;DHT22;21190;58.750;17.004;2022-09-16T02:42:59;10.90;99.90
34985;DHT22;21190;58.750;17.004;2022-09-16T02:53:45;11.00;99.90
34985;DHT22;21190;58.750;17.004;2022-09-16T02:56:35;10.90;99.90
34985;DHT22;21190;58.750;17.004;2022-09-16T02:59:00;10.90;99.90
34985;DHT22;21190;58.750;17.004;2022-09-16T03:01:29;10.80;99.90
34985;DHT22;21190;58.750;17.004;2022-09-16T03:03:57;10.80;99.90
34985;DHT22;21190;58.750;17.004;2022-09-16T03:06:25;10.80;99.90
34985;DHT22;21190;58.750;17.004;2022-09-16T03:08:53;10.80;99.90
34985;DHT22;21190;58.750;17.004;2022-09-16T03:24:32;10.90;99.90
34985;DHT22;21190;58.750;17.004;2022-09-16T03:30:12;10.90;99.90
34985;DHT22;21190;58.750;17.004;2022-09-16T03:32:21;11.00;99.90
34985;DHT22;21190;58.750;17.004;2022-09-16T03:34:58;11.00;99.90
34985;DHT22;21190;58.750;17.004;2022-09-16T03:37:27;10.90;99.90
34985;DHT22;21190;58.750;17.004;2022-09-16T03:39:58;10.90;99.90
34985;DHT22;21190;58.750;17.004;2022-09-16T03:42:25;11.00;99.90
34985;DHT22;21190;58.750;17.004;2022-09-16T03:44:53;10.90;99.90
34985;DHT22;21190;58.750;17.004;2022-09-16T03:47:19;10.90;99.90
34985;DHT22;21190;58.750;17.004;2022-09-16T03:49:46;10.90;99.90
34985;DHT22;21190;58.750;17.004;2022-09-16T03:52:13;10.90;99.90
34985;DHT22;21190;58.750;17.004;2022-09-16T03:54:42;10.90;99.90
34985;DHT22;21190;58.750;17.004;2022-09-16T03:57:09;10.90;99.90
34985;DHT22;21190;58.750;17.004;2022-09-16T03:59:36;10.90;99.90
34985;DHT22;21190;58.750;17.004;2022-09-16T04:02:03;10.90;99.90
34985;DHT22;21190;58.750;17.004;2022-09-16T04:04:30;10.90;99.90
34985;DHT22;21190;58.750;17.004;2022-09-16T04:06:57;10.90;99.90
34985;DHT22;21190;58.750;17.004;2022-09-16T04:09:24;10.90;99.90
34985;DHT22;21190;58.750;17.004;2022-09-16T04:11:51;10.90;99.90
34985;DHT22;21190;58.750;17.004;2022-09-16T04:14:18;10.90;99.90
34985;DHT22;21190;58.750;17.004;2022-09-16T04:16:45;10.90;99.90
34985;DHT22;21190;58.750;17.004;2022-09-16T04:19:13;10.90;99.90
34985;DHT22;21190;58.750;17.004;2022-09-16T04:21:40;11.00;99.90
34985;DHT22;21190;58.750;17.004;2022-09-16T04:24:08;11.00;99.90
34985;DHT22;21190;58.750;17.004;2022-09-16T04:26:39;10.90;99.90
34985;DHT22;21190;58.750;17.004;2022-09-16T04:29:06;10.90;99.90
34985;DHT22;21190;58.750;17.004;2022-09-16T04:31:32;10.90;99.90
34985;DHT22;21190;58.750;17.004;2022-09-16T04:34:00;10.90;99.90
34985;DHT22;21190;58.750;17.004;2022-09-16T04:36:27;10.90;99.90
34985;DHT22;21190;58.750;17.004;2022-09-16T04:38:54;11.00;99.90
34985;DHT22;21190;58.750;17.004;2022-09-16T04:41:22;11.00;99.90
34985;DHT22;21190;58.750;17.004;2022-09-16T04:43:50;11.00;99.90
34985;DHT22;21190;58.750;17.004;2022-09-16T04:46:18;11.00;99.90
34985;DHT22;21190;58.750;17.004;2022-09-16T04:48:49;11.00;99.90
34985;DHT22;21190;58.750;17.004;2022-09-16T04:51:16;11.10;99.90
34985;DHT22;21190;58.750;17.004;2022-09-16T04:53:43;11.20;99.90
34985;DHT22;21190;58.750;17.004;2022-09-16T04:58:44;11.20;99.90
34985;DHT22;21190;58.750;17.004;2022-09-16T05:01:14;11.10;99.90
34985;DHT22;21190;58.750;17.004;2022-09-16T05:03:43;11.10;99.90
34985;DHT22;21190;58.750;17.004;2022-09-16T05:06:12;11.20;99.90
34985;DHT22;21190;58.750;17.004;2022-09-16T05:08:46;11.20;99.90
34985;DHT22;21190;58.750;17.004;2022-09-16T05:11:15;11.20;99.90
34985;DHT22;21190;58.750;17.004;2022-09-16T05:13:43;11.20;99.90
34985;DHT22;21190;58.750;17.004;2022-09-16T05:16:13;11.10;99.90
34985;DHT22;21190;58.750;17.004;2022-09-16T05:18:41;11.20;99.90
34985;DHT22;21190;58.750;17.004;2022-09-16T05:21:09;11.20;99.90
34985;DHT22;21190;58.750;17.004;2022-09-16T05:23:37;11.20;99.90
34985;DHT22;21190;58.750;17.004;2022-09-16T05:26:06;11.20;99.90
34985;DHT22;21190;58.750;17.004;2022-09-16T05:28:34;11.20;99.90
34985;DHT22;21190;58.750;17.004;2022-09-16T05:31:12;11.30;99.90
34985;DHT22;21190;58.750;17.004;2022-09-16T05:33:39;11.30;99.90
34985;DHT22;21190;58.750;17.004;2022-09-16T05:36:07;11.30;99.90
34985;DHT22;21190;58.750;17.004;2022-09-16T05:38:34;11.30;99.90
34985;DHT22;21190;58.750;17.004;2022-09-16T05:41:02;11.30;99.90
34985;DHT22;21190;58.750;17.004;2022-09-16T05:43:29;11.30;99.90
34985;DHT22;21190;58.750;17.004;2022-09-16T05:45:56;11.30;99.90
34985;DHT22;21190;58.750;17.004;2022-09-16T05:48:23;11.40;99.90
34985;DHT22;21190;58.750;17.004;2022-09-16T05:50:52;11.40;99.90
34985;DHT22;21190;58.750;17.004;2022-09-16T05:53:19;11.40;99.90
34985;DHT22;21190;58.750;17.004;2022-09-16T05:56:00;11.40;99.90
34985;DHT22;21190;58.750;17.004;2022-09-16T05:58:28;11.50;99.90
34985;DHT22;21190;58.750;17.004;2022-09-16T06:01:01;11.50;99.90
34985;DHT22;21190;58.750;17.004;2022-09-16T06:03:29;11.50;99.90
34985;DHT22;21190;58.750;17.004;2022-09-16T06:06:00;11.50;99.90
34985;DHT22;21190;58.750;17.004;2022-09-16T06:08:27;11.60;99.90
34985;DHT22;21190;58.750;17.004;2022-09-16T06:10:54;11.50;99.90
34985;DHT22;21190;58.750;17.004;2022-09-16T06:13:21;11.60;99.90
34985;DHT22;21190;58.750;17.004;2022-09-16T06:15:49;11.60;99.90
34985;DHT22;21190;58.750;17.004;2022-09-16T06:18:16;11.60;99.90
34985;DHT22;21190;58.750;17.004;2022-09-16T06:20:44;11.60;99.90
34985;DHT22;21190;58.750;17.004;2022-09-16T06:23:12;11.70;99.90
34985;DHT22;21190;58.750;17.004;2022-09-16T06:25:39;11.80;99.90
34985;DHT22;21190;58.750;17.004;2022-09-16T06:28:06;11.70;99.90
34985;DHT22;21190;58.750;17.004;2022-09-16T06:30:33;11.70;99.90
34985;DHT22;21190;58.750;17.004;2022-09-16T06:33:00;11.70;99.90
34985;DHT22;21190;58.750;17.004;2022-09-16T06:35:26;11.80;99.90
34985;DHT22;21190;58.750;17.004;2022-09-16T06:37:54;11.90;99.90
34985;DHT22;21190;58.750;17.004;2022-09-16T06:40:20;11.80;99.90
34985;DHT22;21190;58.750;17.004;2022-09-16T06:42:47;11.80;99.90
34985;DHT22;21190;58.750;17.004;2022-09-16T06:45:14;11.80;99.90
34985;DHT22;21190;58.750;17.004;2022-09-16T06:47:41;11.90;99.90
34985;DHT22;21190;58.750;17.004;2022-09-16T06:50:08;11.90;99.90
34985;DHT22;21190;58.750;17.004;2022-09-16T06:52:35;12.00;99.90
34985;DHT22;21190;58.750;17.004;2022-09-16T06:55:02;12.00;99.90
34985;DHT22;21190;58.750;17.004;2022-09-16T06:57:29;12.00;99.90
34985;DHT22;21190;58.750;17.004;2022-09-16T06:59:56;12.00;99.90
34985;DHT22;21190;58.750;17.004;2022-09-16T07:02:23;12.10;99.90
34985;DHT22;21190;58.750;17.004;2022-09-16T07:04:50;12.10;99.90
34985;DHT22;21190;58.750;17.004;2022-09-16T07:07:17;12.10;99.90
34985;DHT22;21190;58.750;17.004;2022-09-16T07:09:44;12.00;99.90
34985;DHT22;21190;58.750;17.004;2022-09-16T07:12:11;12.10;99.90
34985;DHT22;21190;58.750;17.004;2022-09-16T07:14:44;12.10;99.90
34985;DHT22;21190;58.750;17.004;2022-09-16T07:17:11;12.10;99.90
34985;DHT22;21190;58.750;17.004;2022-09-16T07:19:38;12.10;99.90
34985;DHT22;21190;58.750;17.004;2022-09-16T07:22:07;12.20;99.90
34985;DHT22;21190;58.750;17.004;2022-09-16T07:24:36;12.20;99.90
34985;DHT22;21190;58.750;17.004;2022-09-16T07:27:03;12.00;99.90
34985;DHT22;21190;58.750;17.004;2022-09-16T07:29:30;12.00;99.90
34985;DHT22;21190;58.750;17.004;2022-09-16T07:31:57;12.00;99.90
34985;DHT22;21190;58.750;17.004;2022-09-16T07:34:24;12.00;99.90
34985;DHT22;21190;58.750;17.004;2022-09-16T07:36:51;11.90;99.90
34985;DHT22;21190;58.750;17.004;2022-09-16T07:39:19;11.90;99.90
34985;DHT22;21190;58.750;17.004;2022-09-16T07:41:46;11.90;99.90
34985;DHT22;21190;58.750;17.004;2022-09-16T07:44:17;11.90;99.90
34985;DHT22;21190;58.750;17.004;2022-09-16T07:46:44;11.90;99.90
34985;DHT22;21190;58.750;17.004;2022-09-16T07:49:12;11.90;99.90
34985;DHT22;21190;58.750;17.004;2022-09-16T07:51:39;11.90;99.90
34985;DHT22;21190;58.750;17.004;2022-09-16T07:54:07;12.00;99.90
34985;DHT22;21190;58.750;17.004;2022-09-16T07:56:35;12.00;99.90
34985;DHT22;21190;58.750;17.004;2022-09-16T07:59:03;12.10;99.90
34985;DHT22;21190;58.750;17.004;2022-09-16T08:01:30;12.20;99.90
34985;DHT22;21190;58.750;17.004;2022-09-16T08:03:57;12.30;99.90
34985;DHT22;21190;58.750;17.004;2022-09-16T08:06:27;12.30;99.90
34985;DHT22;21190;58.750;17.004;2022-09-16T08:08:55;12.20;99.90
34985;DHT22;21190;58.750;17.004;2022-09-16T08:11:35;12.20;99.90
34985;DHT22;21190;58.750;17.004;2022-09-16T08:14:02;12.00;99.90
34985;DHT22;21190;58.750;17.004;2022-09-16T08:16:29;12.00;99.90
34985;DHT22;21190;58.750;17.004;2022-09-16T08:18:56;12.00;99.90
34985;DHT22;21190;58.750;17.004;2022-09-16T08:21:25;12.00;99.90
34985;DHT22;21190;58.750;17.004;2022-09-16T08:23:53;12.10;99.90
34985;DHT22;21190;58.750;17.004;2022-09-16T08:26:21;12.20;99.90
34985;DHT22;21190;58.750;17.004;2022-09-16T08:28:48;12.30;99.90
34985;DHT22;21190;58.750;17.004;2022-09-16T08:31:34;12.30;99.90
34985;DHT22;21190;58.750;17.004;2022-09-16T08:34:02;12.30;99.90
34985;DHT22;21190;58.750;17.004;2022-09-16T08:36:29;12.30;99.90
34985;DHT22;21190;58.750;17.004;2022-09-16T08:38:55;12.30;99.90
34985;DHT22;21190;58.750;17.004;2022-09-16T08:46:42;12.50;99.90
34985;DHT22;21190;58.750;17.004;2022-09-16T08:51:43;12.50;99.90
34985;DHT22;21190;58.750;17.004;2022-09-16T08:54:23;12.60;99.90
34985;DHT22;21190;58.750;17.004;2022-09-16T08:57:02;12.50;99.90
34985;DHT22;21190;58.750;17.004;2022-09-16T08:59:31;12.60;99.90
34985;DHT22;21190;58.750;17.004;2022-09-16T09:02:10;12.60;99.90
34985;DHT22;21190;58.750;17.004;2022-09-16T09:04:45;12.60;99.90
34985;DHT22;21190;58.750;17.004;2022-09-16T09:43:46;13.20;99.90
34985;DHT22;21190;58.750;17.004;2022-09-16T09:48:57;13.40;99.90
34985;DHT22;21190;58.750;17.004;2022-09-16T09:51:33;13.50;99.90
34985;DHT22;21190;58.750;17.004;2022-09-16T09:54:02;13.60;99.90
34985;DHT22;21190;58.750;17.004;2022-09-16T09:56:35;13.60;99.90
34985;DHT22;21190;58.750;17.004;2022-09-16T10:01:38;13.60;99.90
34985;DHT22;21190;58.750;17.004;2022-09-16T10:04:13;13.70;99.90
34985;DHT22;21190;58.750;17.004;2022-09-16T10:06:40;13.70;99.90
34985;DHT22;21190;58.750;17.004;2022-09-16T10:09:08;13.80;99.90
34985;DHT22;21190;58.750;17.004;2022-09-16T10:11:44;13.70;99.90
34985;DHT22;21190;58.750;17.004;2022-09-16T10:14:20;13.60;99.90
34985;DHT22;21190;58.750;17.004;2022-09-16T10:16:48;13.40;99.90
34985;DHT22;21190;58.750;17.004;2022-09-16T10:19:23;13.20;99.90
34985;DHT22;21190;58.750;17.004;2022-09-16T10:21:55;13.00;99.90
34985;DHT22;21190;58.750;17.004;2022-09-16T10:26:56;12.50;99.90
34985;DHT22;21190;58.750;17.004;2022-09-16T10:29:23;12.50;99.90
34985;DHT22;21190;58.750;17.004;2022-09-16T10:31:50;12.50;99.90
34985;DHT22;21190;58.750;17.004;2022-09-16T10:37:00;12.70;99.90
34985;DHT22;21190;58.750;17.004;2022-09-16T10:39:28;12.80;99.90
34985;DHT22;21190;58.750;17.004;2022-09-16T10:41:55;12.90;99.90
34985;DHT22;21190;58.750;17.004;2022-09-16T10:44:29;12.90;99.90
34985;DHT22;21190;58.750;17.004;2022-09-16T10:47:00;13.00;99.90
34985;DHT22;21190;58.750;17.004;2022-09-16T10:54:54;13.00;99.90
34985;DHT22;21190;58.750;17.004;2022-09-16T11:00:03;13.00;99.90
34985;DHT22;21190;58.750;17.004;2022-09-16T11:26:14;13.40;99.90
34985;DHT22;21190;58.750;17.004;2022-09-16T11:28:48;13.40;99.90
34985;DHT22;21190;58.750;17.004;2022-09-16T11:34:25;13.40;99.90
34985;DHT22;21190;58.750;17.004;2022-09-16T11:39:37;13.60;99.90
34985;DHT22;21190;58.750;17.004;2022-09-16T11:44:39;13.90;99.90
34985;DHT22;21190;58.750;17.004;2022-09-16T11:47:11;14.00;99.90
34985;DHT22;21190;58.750;17.004;2022-09-16T11:52:41;14.20;99.90
34985;DHT22;21190;58.750;17.004;2022-09-16T11:57:49;14.40;99.90
34985;DHT22;21190;58.750;17.004;2022-09-16T12:00:17;14.40;99.90
34985;DHT22;21190;58.750;17.004;2022-09-16T12:05:44;14.20;99.90
34985;DHT22;21190;58.750;17.004;2022-09-16T12:08:29;14.10;99.90
34985;DHT22;21190;58.750;17.004;2022-09-16T12:10:58;13.80;99.90
34985;DHT22;21190;58.750;17.004;2022-09-16T12:13:28;13.30;99.90
34985;DHT22;21190;58.750;17.004;2022-09-16T12:15:58;13.10;99.90
34985;DHT22;21190;58.750;17.004;2022-09-16T12:18:27;12.80;99.90
34985;DHT22;21190;58.750;17.004;2022-09-16T12:21:07;12.70;99.90
34985;DHT22;21190;58.750;17.004;2022-09-16T12:23:37;12.50;99.90
34985;DHT22;21190;58.750;17.004;2022-09-16T12:26:06;12.60;99.90
34985;DHT22;21190;58.750;17.004;2022-09-16T12:28:54;12.60;99.90
34985;DHT22;21190;58.750;17.004;2022-09-16T12:33:56;12.60;99.90
34985;DHT22;21190;58.750;17.004;2022-09-16T12:36:26;12.60;99.90
34985;DHT22;21190;58.750;17.004;2022-09-16T12:38:58;12.60;99.90
34985;DHT22;21190;58.750;17.004;2022-09-16T12:46:54;12.50;99.90
34985;DHT22;21190;58.750;17.004;2022-09-16T13:00:15;12.80;99.90
34985;DHT22;21190;58.750;17.004;2022-09-16T13:02:44;12.90;99.90
34985;DHT22;21190;58.750;17.004;2022-09-16T13:05:15;13.00;99.90
34985;DHT22;21190;58.750;17.004;2022-09-16T13:07:46;13.00;99.90
34985;DHT22;21190;58.750;17.004;2022-09-16T13:10:18;12.90;99.90
34985;DHT22;21190;58.750;17.004;2022-09-16T13:13:06;12.90;99.90
34985;DHT22;21190;58.750;17.004;2022-09-16T13:15:35;12.90;99.90
34985;DHT22;21190;58.750;17.004;2022-09-16T13:21:04;13.00;99.90
34985;DHT22;21190;58.750;17.004;2022-09-16T13:23:33;13.00;99.90
34985;DHT22;21190;58.750;17.004;2022-09-16T13:26:05;12.90;99.90
34985;DHT22;21190;58.750;17.004;2022-09-16T13:28:36;12.90;99.90
34985;DHT22;21190;58.750;17.004;2022-09-16T13:33:37;12.70;99.90
34985;DHT22;21190;58.750;17.004;2022-09-16T13:38:44;12.70;99.90
34985;DHT22;21190;58.750;17.004;2022-09-16T13:41:12;12.60;99.90
34985;DHT22;21190;58.750;17.004;2022-09-16T13:46:24;12.50;99.90
34985;DHT22;21190;58.750;17.004;2022-09-16T13:51:24;12.40;99.90
34985;DHT22;21190;58.750;17.004;2022-09-16T13:53:51;12.40;99.90
34985;DHT22;21190;58.750;17.004;2022-09-16T14:01:38;12.50;99.90
34985;DHT22;21190;58.750;17.004;2022-09-16T14:04:33;12.60;99.90
34985;DHT22;21190;58.750;17.004;2022-09-16T14:07:28;12.60;99.90
34985;DHT22;21190;58.750;17.004;2022-09-16T14:10:02;12.60;99.90
34985;DHT22;21190;58.750;17.004;2022-09-16T14:12:36;12.60;99.90
34985;DHT22;21190;58.750;17.004;2022-09-16T14:15:07;12.50;99.90
34985;DHT22;21190;58.750;17.004;2022-09-16T14:17:38;12.50;99.90
34985;DHT22;21190;58.750;17.004;2022-09-16T14:20:05;12.50;99.90
34985;DHT22;21190;58.750;17.004;2022-09-16T14:22:36;12.50;99.90
34985;DHT22;21190;58.750;17.004;2022-09-16T14:25:22;12.60;99.90
34985;DHT22;21190;58.750;17.004;2022-09-16T14:28:08;12.60;99.90
34985;DHT22;21190;58.750;17.004;2022-09-16T14:30:35;12.60;99.90
34985;DHT22;21190;58.750;17.004;2022-09-16T14:33:02;12.60;99.90
34985;DHT22;21190;58.750;17.004;2022-09-16T14:35:29;12.60;99.90
34985;DHT22;21190;58.750;17.004;2022-09-16T14:37:58;12.60;99.90
34985;DHT22;21190;58.750;17.004;2022-09-16T14:40:25;12.70;99.90
34985;DHT22;21190;58.750;17.004;2022-09-16T14:43:03;12.70;99.90
34985;DHT22;21190;58.750;17.004;2022-09-16T14:45:31;12.60;99.90
34985;DHT22;21190;58.750;17.004;2022-09-16T14:48:00;12.60;99.90
34985;DHT22;21190;58.750;17.004;2022-09-16T14:50:29;12.60;99.90
34985;DHT22;21190;58.750;17.004;2022-09-16T14:52:57;12.70;99.90
34985;DHT22;21190;58.750;17.004;2022-09-16T14:55:25;12.70;99.90
34985;DHT22;21190;58.750;17.004;2022-09-16T14:57:56;12.70;99.90
34985;DHT22;21190;58.750;17.004;2022-09-16T15:00:24;12.80;99.90
34985;DHT22;21190;58.750;17.004;2022-09-16T15:03:03;12.80;99.90
34985;DHT22;21190;58.750;17.004;2022-09-16T15:05:36;12.90;99.90
34985;DHT22;21190;58.750;17.004;2022-09-16T15:08:07;12.80;99.90
34985;DHT22;21190;58.750;17.004;2022-09-16T15:10:40;12.90;99.90
34985;DHT22;21190;58.750;17.004;2022-09-16T15:13:19;12.80;99.90
34985;DHT22;21190;58.750;17.004;2022-09-16T15:15:52;12.80;99.90
34985;DHT22;21190;58.750;17.004;2022-09-16T15:20:57;12.90;99.90
34985;DHT22;21190;58.750;17.004;2022-09-16T15:23:25;12.90;99.90
34985;DHT22;21190;58.750;17.004;2022-09-16T15:25:56;12.90;99.90
34985;DHT22;21190;58.750;17.004;2022-09-16T15:28:25;12.90;99.90
34985;DHT22;21190;58.750;17.004;2022-09-16T15:30:53;13.00;99.90
34985;DHT22;21190;58.750;17.004;2022-09-16T15:33:25;13.00;99.90
34985;DHT22;21190;58.750;17.004;2022-09-16T15:35:58;13.00;99.90
34985;DHT22;21190;58.750;17.004;2022-09-16T15:38:25;13.00;99.90
34985;DHT22;21190;58.750;17.004;2022-09-16T15:41:05;13.00;99.90
34985;DHT22;21190;58.750;17.004;2022-09-16T15:43:36;13.00;99.90
34985;DHT22;21190;58.750;17.004;2022-09-16T15:46:16;13.00;99.90
34985;DHT22;21190;58.750;17.004;2022-09-16T15:48:47;13.00;99.90
34985;DHT22;21190;58.750;17.004;2022-09-16T15:51:29;12.90;99.90
34985;DHT22;21190;58.750;17.004;2022-09-16T15:54:03;12.90;99.90
34985;DHT22;21190;58.750;17.004;2022-09-16T15:56:36;12.90;99.90
34985;DHT22;21190;58.750;17.004;2022-09-16T16:01:50;12.90;99.90
34985;DHT22;21190;58.750;17.004;2022-09-16T16:04:26;13.00;99.90
34985;DHT22;21190;58.750;17.004;2022-09-16T16:11:54;12.90;99.90
34985;DHT22;21190;58.750;17.004;2022-09-16T16:14:21;12.90;99.90
34985;DHT22;21190;58.750;17.004;2022-09-16T16:16:50;12.90;99.90
34985;DHT22;21190;58.750;17.004;2022-09-16T16:19:37;12.90;99.90
34985;DHT22;21190;58.750;17.004;2022-09-16T16:22:04;12.90;99.90
34985;DHT22;21190;58.750;17.004;2022-09-16T16:24:32;12.90;99.90
34985;DHT22;21190;58.750;17.004;2022-09-16T16:26:59;12.90;99.90
34985;DHT22;21190;58.750;17.004;2022-09-16T16:29:26;12.90;99.90
34985;DHT22;21190;58.750;17.004;2022-09-16T16:32:13;12.80;99.90
34985;DHT22;21190;58.750;17.004;2022-09-16T16:34:44;12.90;99.90
34985;DHT22;21190;58.750;17.004;2022-09-16T16:37:13;12.90;99.90
34985;DHT22;21190;58.750;17.004;2022-09-16T16:40:00;12.90;99.90
34985;DHT22;21190;58.750;17.004;2022-09-16T16:42:27;12.80;99.90
34985;DHT22;21190;58.750;17.004;2022-09-16T16:44:55;12.80;99.90
34985;DHT22;21190;58.750;17.004;2022-09-16T16:47:22;12.80;99.90
34985;DHT22;21190;58.750;17.004;2022-09-16T16:49:49;12.80;99.90
34985;DHT22;21190;58.750;17.004;2022-09-16T16:52:17;12.70;99.90
34985;DHT22;21190;58.750;17.004;2022-09-16T16:54:44;12.80;99.90
34985;DHT22;21190;58.750;17.004;2022-09-16T16:57:13;12.80;99.90
34985;DHT22;21190;58.750;17.004;2022-09-16T16:59:40;12.80;99.90
34985;DHT22;21190;58.750;17.004;2022-09-16T17:02:07;12.70;99.90
34985;DHT22;21190;58.750;17.004;2022-09-16T17:04:34;12.80;99.90
34985;DHT22;21190;58.750;17.004;2022-09-16T17:07:02;12.70;99.90
34985;DHT22;21190;58.750;17.004;2022-09-16T17:09:49;12.80;99.90
34985;DHT22;21190;58.750;17.004;2022-09-16T17:12:16;12.70;99.90
34985;DHT22;21190;58.750;17.004;2022-09-16T17:14:43;12.70;99.90
34985;DHT22;21190;58.750;17.004;2022-09-16T17:17:10;12.70;99.90
34985;DHT22;21190;58.750;17.004;2022-09-16T17:19:37;12.70;99.90
34985;DHT22;21190;58.750;17.004;2022-09-16T17:22:04;12.70;99.90
34985;DHT22;21190;58.750;17.004;2022-09-16T17:24:31;12.70;99.90
34985;DHT22;21190;58.750;17.004;2022-09-16T17:26:58;12.60;99.90
34985;DHT22;21190;58.750;17.004;2022-09-16T17:29:25;12.60;99.90
34985;DHT22;21190;58.750;17.004;2022-09-16T17:31:52;12.60;99.90
34985;DHT22;21190;58.750;17.004;2022-09-16T17:34:22;12.60;99.90
34985;DHT22;21190;58.750;17.004;2022-09-16T17:36:52;12.60;99.90
34985;DHT22;21190;58.750;17.004;2022-09-16T17:39:19;12.70;99.90
34985;DHT22;21190;58.750;17.004;2022-09-16T17:41:47;12.60;99.90
34985;DHT22;21190;58.750;17.004;2022-09-16T17:44:17;12.60;99.90
34985;DHT22;21190;58.750;17.004;2022-09-16T17:46:44;12.60;99.90
34985;DHT22;21190;58.750;17.004;2022-09-16T17:49:15;12.50;99.90
34985;DHT22;21190;58.750;17.004;2022-09-16T17:51:42;12.50;99.90
34985;DHT22;21190;58.750;17.004;2022-09-16T17:54:09;12.60;99.90
34985;DHT22;21190;58.750;17.004;2022-09-16T17:56:36;12.60;99.90
34985;DHT22;21190;58.750;17.004;2022-09-16T17:59:03;12.50;99.90
34985;DHT22;21190;58.750;17.004;2022-09-16T18:01:30;12.50;99.90
34985;DHT22;21190;58.750;17.004;2022-09-16T18:03:58;12.60;99.90
34985;DHT22;21190;58.750;17.004;2022-09-16T18:06:47;12.60;99.90
34985;DHT22;21190;58.750;17.004;2022-09-16T18:09:13;12.60;99.90
34985;DHT22;21190;58.750;17.004;2022-09-16T18:11:41;12.50;99.90
34985;DHT22;21190;58.750;17.004;2022-09-16T18:14:10;12.40;99.90
34985;DHT22;21190;58.750;17.004;2022-09-16T18:16:37;12.40;99.90
34985;DHT22;21190;58.750;17.004;2022-09-16T18:19:04;12.40;99.90
34985;DHT22;21190;58.750;17.004;2022-09-16T18:21:31;12.40;99.90
34985;DHT22;21190;58.750;17.004;2022-09-16T18:23:59;12.30;99.90
34985;DHT22;21190;58.750;17.004;2022-09-16T18:26:28;12.30;99.90
34985;DHT22;21190;58.750;17.004;2022-09-16T18:28:55;12.30;99.90
34985;DHT22;21190;58.750;17.004;2022-09-16T18:31:39;12.30;99.90
34985;DHT22;21190;58.750;17.004;2022-09-16T18:34:06;12.30;99.90
34985;DHT22;21190;58.750;17.004;2022-09-16T18:36:33;12.30;99.90
34985;DHT22;21190;58.750;17.004;2022-09-16T18:39:02;12.30;99.90
34985;DHT22;21190;58.750;17.004;2022-09-16T18:41:32;12.30;99.90
34985;DHT22;21190;58.750;17.004;2022-09-16T18:44:01;12.30;99.90
34985;DHT22;21190;58.750;17.004;2022-09-16T18:46:30;12.40;99.90
34985;DHT22;21190;58.750;17.004;2022-09-16T18:48:57;12.40;99.90
34985;DHT22;21190;58.750;17.004;2022-09-16T18:51:26;12.40;99.90
34985;DHT22;21190;58.750;17.004;2022-09-16T18:53:54;12.40;99.90
34985;DHT22;21190;58.750;17.004;2022-09-16T18:56:23;12.40;99.90
34985;DHT22;21190;58.750;17.004;2022-09-16T18:58:50;12.40;99.90
34985;DHT22;21190;58.750;17.004;2022-09-16T19:01:38;12.40;99.90
34985;DHT22;21190;58.750;17.004;2022-09-16T19:04:07;12.30;99.90
34985;DHT22;21190;58.750;17.004;2022-09-16T19:06:36;12.30;99.90